Time;durP1;ratioP1;P1;durP2;ratioP2;P2;SDS_P1;SDS_P2;PMS_P1;PMS_P2;Temp;Humidity;BMP_temperature;BMP_pressure;BME280_temperature;BME280_humidity;BME280_pressure;Samples;Min_cycle;Max_cycle;Signal;HPM_P1;HPM_P2
2021/12/24 00:00:14;;;;;;;15.98;10.90;;;;;;;;;;5076247;28;20032;-72
2021/12/24 00:02:40;;;;;;;18.75;12.18;;;;;;;;;;5074326;28;20040;-72
2021/12/24 00:05:07;;;;;;;23.98;15.65;;;;;;;;;;5072645;28;20085;-73
2021/12/24 00:07:33;;;;;;;20.10;12.05;;;;;;;;;;5073437;28;20032;-72
2021/12/24 00:09:59;;;;;;;19.20;12.07;;;;;;;;;;5070332;28;20087;-72
2021/12/24 00:12:28;;;;;;;21.52;13.32;;;;;;;;;;5073542;28;20051;-72
2021/12/24 00:15:00;;;;;;;17.80;10.80;;;;;;;;;;5069767;28;20443;-72
2021/12/24 00:17:33;;;;;;;50.80;22.17;;;;;;;;;;5072791;28;20032;-72
2021/12/24 00:36:05;;;;;;;18.73;11.98;;;;;;;;;;5061156;28;20041;-73
2021/12/24 00:38:32;;;;;;;19.05;13.02;;;;;;;;;;5073414;28;20512;-73
2021/12/24 00:40:58;;;;;;;23.08;13.75;;;;;;;;;;5054628;28;20053;-73
2021/12/24 00:43:24;;;;;;;18.67;12.05;;;;;;;;;;5071779;28;20045;-72
2021/12/24 00:45:51;;;;;;;23.25;14.40;;;;;;;;;;5052829;28;20080;-73
2021/12/24 00:48:18;;;;;;;27.50;15.85;;;;;;;;;;5070130;28;20041;-73
2021/12/24 00:50:56;;;;;;;24.10;14.75;;;;;;;;;;5072841;28;20040;-73
2021/12/24 00:55:59;;;;;;;30.85;15.40;;;;;;;;;;5073084;28;20043;-72
2021/12/24 00:58:25;;;;;;;26.60;17.42;;;;;;;;;;5067440;28;20055;-73
2021/12/24 01:00:51;;;;;;;24.77;13.57;;;;;;;;;;5071947;28;20120;-72
2021/12/24 01:03:18;;;;;;;23.52;14.50;;;;;;;;;;5071629;28;20047;-72
2021/12/24 01:05:44;;;;;;;26.67;14.25;;;;;;;;;;5072476;28;20399;-73
2021/12/24 01:08:11;;;;;;;27.30;13.80;;;;;;;;;;5072336;28;20097;-72
2021/12/24 01:10:39;;;;;;;25.45;13.88;;;;;;;;;;5069169;28;20490;-72
2021/12/24 01:13:06;;;;;;;24.00;13.50;;;;;;;;;;5068333;28;20093;-73
2021/12/24 01:15:35;;;;;;;19.73;12.68;;;;;;;;;;5071831;28;20098;-73
2021/12/24 01:18:16;;;;;;;20.45;12.02;;;;;;;;;;5071751;28;20089;-72
2021/12/24 01:20:47;;;;;;;16.60;10.52;;;;;;;;;;5101594;27;20527;-72
2021/12/24 01:26:12;;;;;;;18.88;10.65;;;;;;;;;;5064850;28;20040;-73
2021/12/24 01:45:00;;;;;;;22.73;12.65;;;;;;;;;;5069289;28;20383;-72
2021/12/24 01:47:26;;;;;;;24.77;12.73;;;;;;;;;;5073035;28;20036;-73
2021/12/24 01:49:53;;;;;;;24.17;13.20;;;;;;;;;;5069081;28;20032;-73
2021/12/24 01:52:19;;;;;;;29.50;14.32;;;;;;;;;;5068047;28;20090;-72
2021/12/24 01:54:46;;;;;;;31.45;15.80;;;;;;;;;;5077517;28;20063;-73
2021/12/24 01:57:13;;;;;;;27.67;15.57;;;;;;;;;;5060182;28;20048;-72
2021/12/24 01:59:41;;;;;;;23.80;14.45;;;;;;;;;;5064140;28;20040;-73
2021/12/24 02:02:07;;;;;;;28.38;15.32;;;;;;;;;;5104607;27;20049;-72
2021/12/24 02:04:33;;;;;;;22.00;15.05;;;;;;;;;;5053190;28;20044;-72
2021/12/24 02:06:59;;;;;;;31.05;15.35;;;;;;;;;;5065600;28;20047;-72
2021/12/24 02:09:25;;;;;;;35.38;18.55;;;;;;;;;;5073206;28;20039;-72
2021/12/24 02:11:52;;;;;;;27.65;16.30;;;;;;;;;;5067607;28;20181;-72
2021/12/24 02:14:22;;;;;;;23.73;15.48;;;;;;;;;;5059643;28;20552;-73
2021/12/24 02:30:14;;;;;;;31.95;16.73;;;;;;;;;;5062492;28;20107;-73
2021/12/24 02:32:41;;;;;;;35.53;16.20;;;;;;;;;;5068621;28;20202;-72
2021/12/24 02:35:08;;;;;;;32.28;18.20;;;;;;;;;;5077998;28;20051;-72
2021/12/24 02:37:34;;;;;;;27.60;15.93;;;;;;;;;;5055528;28;20126;-72
2021/12/24 02:40:01;;;;;;;30.77;17.73;;;;;;;;;;5071809;28;20036;-72
2021/12/24 02:42:27;;;;;;;22.42;14.15;;;;;;;;;;5068349;28;20531;-73
2021/12/24 02:44:53;;;;;;;29.42;14.82;;;;;;;;;;5066640;28;20090;-72
2021/12/24 02:55:10;;;;;;;36.42;19.65;;;;;;;;;;5068843;28;20584;-72
2021/12/24 02:57:38;;;;;;;44.22;19.33;;;;;;;;;;5068965;28;20444;-72
2021/12/24 03:00:07;;;;;;;36.88;20.55;;;;;;;;;;5067785;28;20036;-72
2021/12/24 03:02:38;;;;;;;38.90;19.27;;;;;;;;;;5062462;28;20040;-71
2021/12/24 03:05:05;;;;;;;38.60;19.83;;;;;;;;;;5068643;28;20510;-72
2021/12/24 03:07:31;;;;;;;45.45;21.25;;;;;;;;;;5098325;28;20072;-72
2021/12/24 03:09:59;;;;;;;44.88;22.75;;;;;;;;;;5068492;28;20953;-72
2021/12/24 03:12:26;;;;;;;40.35;21.05;;;;;;;;;;5068541;28;20494;-72
2021/12/24 03:14:52;;;;;;;50.03;23.42;;;;;;;;;;5065520;28;20076;-72
2021/12/24 03:17:22;;;;;;;51.35;24.90;;;;;;;;;;5079168;28;20065;-73
2021/12/24 03:19:48;;;;;;;45.13;22.50;;;;;;;;;;5069071;28;20052;-73
2021/12/24 03:24:41;;;;;;;44.67;23.15;;;;;;;;;;5068647;28;20051;-72
2021/12/24 03:27:08;;;;;;;56.25;26.35;;;;;;;;;;5067086;28;20055;-73
2021/12/24 03:29:34;;;;;;;51.95;25.45;;;;;;;;;;5069305;28;20086;-73
2021/12/24 03:32:01;;;;;;;60.60;24.38;;;;;;;;;;5068913;28;20395;-71
2021/12/24 03:34:27;;;;;;;49.35;24.33;;;;;;;;;;5068677;28;20062;-72
2021/12/24 03:36:53;;;;;;;44.22;22.48;;;;;;;;;;5065185;28;20174;-72
2021/12/24 03:39:21;;;;;;;43.38;23.15;;;;;;;;;;5068854;28;20059;-72
2021/12/24 03:41:49;;;;;;;50.90;27.92;;;;;;;;;;5066961;28;20112;-73
2021/12/24 03:44:17;;;;;;;70.07;28.38;;;;;;;;;;5067931;28;20040;-73
2021/12/24 03:50:06;;;;;;;72.63;31.00;;;;;;;;;;5062589;28;20048;-72
2021/12/24 03:52:17;;;;;;;65.07;32.50;;;;;;;;;;5060313;28;20056;-72
2021/12/24 03:54:57;;;;;;;63.47;31.25;;;;;;;;;;5059955;28;20502;-72
2021/12/24 03:57:27;;;;;;;61.55;31.70;;;;;;;;;;5064734;28;20365;-72
2021/12/24 03:59:54;;;;;;;55.25;30.33;;;;;;;;;;5067420;28;20039;-73
2021/12/24 04:02:20;;;;;;;52.97;29.00;;;;;;;;;;5066791;28;20101;-73
2021/12/24 04:04:46;;;;;;;65.28;34.33;;;;;;;;;;5063091;28;20044;-73
2021/12/24 04:07:13;;;;;;;73.05;33.35;;;;;;;;;;5064428;28;20178;-73
2021/12/24 04:09:47;;;;;;;55.70;30.98;;;;;;;;;;5065652;28;20145;-72
2021/12/24 04:12:13;;;;;;;66.95;33.25;;;;;;;;;;5066262;28;20486;-73
2021/12/24 04:14:40;;;;;;;64.00;31.55;;;;;;;;;;5062714;28;20095;-73
2021/12/24 04:17:08;;;;;;;57.17;30.73;;;;;;;;;;5065519;28;20564;-73
2021/12/24 04:25:04;;;;;;;56.78;28.35;;;;;;;;;;5059442;28;20123;-73
2021/12/24 04:27:31;;;;;;;52.17;29.10;;;;;;;;;;5062368;28;20070;-73
2021/12/24 04:30:09;;;;;;;52.20;29.48;;;;;;;;;;5059387;28;20625;-73
2021/12/24 04:52:03;;;;;;;48.28;26.17;;;;;;;;;;5061952;28;20060;-72
2021/12/24 05:02:57;;;;;;;43.33;22.83;;;;;;;;;;5098979;27;20079;-72
2021/12/24 05:05:49;;;;;;;40.53;19.50;;;;;;;;;;5065578;28;20122;-73
2021/12/24 05:10:40;;;;;;;37.47;16.85;;;;;;;;;;5071354;28;20482;-74
2021/12/24 05:13:08;;;;;;;36.83;17.73;;;;;;;;;;5071644;28;20062;-73
2021/12/24 05:15:38;;;;;;;39.22;17.90;;;;;;;;;;5069078;28;20028;-73
2021/12/24 05:18:14;;;;;;;33.38;15.27;;;;;;;;;;5072205;28;20044;-73
2021/12/24 05:23:25;;;;;;;33.72;14.02;;;;;;;;;;5067381;28;20040;-73
2021/12/24 05:25:51;;;;;;;26.08;13.77;;;;;;;;;;5070545;28;20032;-73
2021/12/24 05:28:18;;;;;;;26.13;15.05;;;;;;;;;;5070669;28;20054;-73
2021/12/24 05:30:46;;;;;;;36.03;14.10;;;;;;;;;;5069122;28;20071;-73
2021/12/24 05:33:14;;;;;;;27.67;13.90;;;;;;;;;;5096489;28;20037;-73
2021/12/24 05:35:41;;;;;;;35.15;13.93;;;;;;;;;;5069562;28;20459;-73
2021/12/24 05:38:07;;;;;;;30.83;14.00;;;;;;;;;;5069321;28;20402;-73
2021/12/24 05:40:33;;;;;;;30.00;12.65;;;;;;;;;;5078551;28;20044;-73
2021/12/24 05:43:00;;;;;;;26.33;12.02;;;;;;;;;;5069982;28;20107;-74
2021/12/24 05:45:26;;;;;;;24.10;10.80;;;;;;;;;;5066606;28;20052;-73
2021/12/24 05:47:52;;;;;;;30.00;11.95;;;;;;;;;;5071090;28;20051;-74
2021/12/24 05:50:18;;;;;;;34.00;12.32;;;;;;;;;;5066290;28;20112;-73
2021/12/24 05:52:44;;;;;;;36.33;12.43;;;;;;;;;;5067008;28;20124;-74
2021/12/24 05:55:11;;;;;;;31.23;12.68;;;;;;;;;;5068441;28;20040;-72
2021/12/24 05:57:37;;;;;;;27.58;11.38;;;;;;;;;;5066570;28;20090;-73
2021/12/24 06:00:07;;;;;;;34.55;11.90;;;;;;;;;;5064705;28;20075;-73
2021/12/24 06:02:34;;;;;;;21.95;11.40;;;;;;;;;;5066950;28;20036;-73
2021/12/24 06:05:00;;;;;;;33.60;11.98;;;;;;;;;;5065726;28;20494;-72
2021/12/24 06:07:26;;;;;;;30.42;12.00;;;;;;;;;;5068169;28;20063;-73
2021/12/24 06:09:52;;;;;;;26.75;10.63;;;;;;;;;;5066944;28;20078;-73
2021/12/24 06:12:19;;;;;;;24.95;11.05;;;;;;;;;;5065081;28;20144;-73
2021/12/24 06:14:52;;;;;;;25.23;10.57;;;;;;;;;;5069002;28;20051;-73
2021/12/24 06:17:19;;;;;;;22.58;10.85;;;;;;;;;;5070423;28;20036;-73
2021/12/24 06:19:45;;;;;;;28.35;12.07;;;;;;;;;;5064603;28;20115;-73
2021/12/24 06:22:11;;;;;;;34.63;11.98;;;;;;;;;;5050282;28;20174;-73
2021/12/24 06:24:37;;;;;;;24.95;11.02;;;;;;;;;;5067360;28;20036;-73
2021/12/24 06:27:04;;;;;;;29.70;10.73;;;;;;;;;;5066586;28;20098;-73
2021/12/24 06:29:31;;;;;;;27.80;12.95;;;;;;;;;;5070706;28;20451;-73
2021/12/24 06:31:57;;;;;;;32.65;11.95;;;;;;;;;;5065539;28;20048;-73
2021/12/24 06:34:26;;;;;;;24.75;10.73;;;;;;;;;;5065288;28;20040;-73
2021/12/24 06:36:53;;;;;;;24.30;11.25;;;;;;;;;;5068564;28;20086;-73
2021/12/24 06:39:20;;;;;;;19.58;9.40;;;;;;;;;;5068049;28;20108;-73
2021/12/24 06:41:46;;;;;;;29.52;9.70;;;;;;;;;;5068931;28;20477;-74
2021/12/24 06:44:12;;;;;;;24.45;10.77;;;;;;;;;;5068858;28;20067;-73
2021/12/24 06:46:40;;;;;;;22.58;9.70;;;;;;;;;;5066670;28;20518;-74
2021/12/24 06:49:06;;;;;;;25.55;10.05;;;;;;;;;;5075891;28;20127;-73
2021/12/24 06:51:33;;;;;;;24.50;10.05;;;;;;;;;;5067997;28;20053;-73
2021/12/24 06:53:59;;;;;;;30.08;10.52;;;;;;;;;;5067824;28;20044;-73
2021/12/24 06:56:25;;;;;;;25.77;9.35;;;;;;;;;;5070888;28;20115;-74
2021/12/24 06:58:52;;;;;;;22.15;10.82;;;;;;;;;;5049002;28;20060;-73
2021/12/24 07:01:18;;;;;;;25.00;10.75;;;;;;;;;;5067357;28;20032;-73
2021/12/24 07:03:45;;;;;;;29.40;9.85;;;;;;;;;;5068776;28;20516;-73
2021/12/24 07:06:11;;;;;;;21.13;9.73;;;;;;;;;;5064830;28;20136;-73
2021/12/24 07:08:37;;;;;;;22.17;9.02;;;;;;;;;;5060124;28;20127;-73
2021/12/24 07:11:04;;;;;;;27.42;9.23;;;;;;;;;;5068827;28;20067;-74
2021/12/24 07:13:30;;;;;;;30.48;9.95;;;;;;;;;;5062713;28;20383;-73
2021/12/24 07:15:56;;;;;;;21.15;9.80;;;;;;;;;;5061051;28;20032;-74
2021/12/24 07:18:23;;;;;;;15.50;8.07;;;;;;;;;;5061488;28;20128;-73
2021/12/24 07:20:49;;;;;;;21.02;8.27;;;;;;;;;;5059934;28;20398;-73
2021/12/24 07:23:15;;;;;;;21.02;9.00;;;;;;;;;;5059376;28;20047;-74
2021/12/24 07:25:41;;;;;;;20.70;8.48;;;;;;;;;;5063341;28;20391;-73
2021/12/24 07:28:07;;;;;;;23.17;8.65;;;;;;;;;;5062631;28;20067;-74
2021/12/24 07:30:34;;;;;;;25.27;9.30;;;;;;;;;;5065050;28;20426;-73
2021/12/24 07:33:00;;;;;;;20.92;9.02;;;;;;;;;;5059916;28;20045;-74
2021/12/24 07:35:26;;;;;;;18.08;8.23;;;;;;;;;;5060615;28;20533;-73
2021/12/24 07:37:53;;;;;;;24.20;8.57;;;;;;;;;;5058335;28;20063;-74
2021/12/24 07:40:19;;;;;;;25.52;8.90;;;;;;;;;;5094059;28;20083;-73
2021/12/24 07:42:47;;;;;;;19.35;8.57;;;;;;;;;;5065125;28;20218;-74
2021/12/24 07:45:16;;;;;;;28.20;9.35;;;;;;;;;;5068903;28;20550;-73
2021/12/24 07:47:44;;;;;;;20.77;7.75;;;;;;;;;;5066405;28;20044;-73
2021/12/24 07:53:02;;;;;;;21.77;8.20;;;;;;;;;;5058730;28;20048;-73
2021/12/24 07:55:28;;;;;;;26.23;9.60;;;;;;;;;;5067806;28;20394;-73
2021/12/24 07:57:55;;;;;;;23.90;8.63;;;;;;;;;;5065301;28;20035;-73
2021/12/24 08:00:26;;;;;;;29.33;9.30;;;;;;;;;;5072209;28;20045;-73
2021/12/24 08:02:53;;;;;;;30.83;9.55;;;;;;;;;;5051275;28;20053;-73
2021/12/24 08:05:23;;;;;;;34.13;9.18;;;;;;;;;;5066707;28;20102;-73
2021/12/24 08:07:50;;;;;;;17.17;8.27;;;;;;;;;;5070099;28;20249;-73
2021/12/24 08:10:17;;;;;;;19.45;7.70;;;;;;;;;;5064995;28;20612;-73
2021/12/24 08:12:43;;;;;;;20.27;8.10;;;;;;;;;;5066427;28;20267;-73
2021/12/24 08:15:09;;;;;;;25.10;8.48;;;;;;;;;;5074792;28;20527;-73
2021/12/24 08:17:36;;;;;;;28.73;7.65;;;;;;;;;;5070545;28;20108;-74
2021/12/24 08:20:03;;;;;;;16.35;6.22;;;;;;;;;;5071589;28;20405;-73
2021/12/24 08:22:29;;;;;;;19.67;6.80;;;;;;;;;;5067681;28;20398;-73
2021/12/24 08:24:55;;;;;;;14.50;7.80;;;;;;;;;;5071790;28;20066;-74
2021/12/24 08:27:21;;;;;;;16.45;6.70;;;;;;;;;;5052255;28;20048;-74
2021/12/24 08:29:48;;;;;;;18.58;7.03;;;;;;;;;;5056227;28;20044;-73
2021/12/24 08:32:15;;;;;;;20.55;7.28;;;;;;;;;;5068658;28;20509;-74
2021/12/24 08:34:43;;;;;;;16.77;6.78;;;;;;;;;;5077072;28;20401;-74
2021/12/24 08:37:09;;;;;;;13.70;6.50;;;;;;;;;;5070742;28;20043;-74
2021/12/24 08:39:35;;;;;;;16.10;6.88;;;;;;;;;;5068970;28;20048;-73
2021/12/24 08:42:01;;;;;;;9.73;6.05;;;;;;;;;;5068806;28;20041;-74
2021/12/24 08:44:30;;;;;;;17.30;7.10;;;;;;;;;;5072008;28;20114;-74
2021/12/24 08:47:00;;;;;;;17.13;6.57;;;;;;;;;;5070261;28;20044;-73
2021/12/24 08:49:26;;;;;;;12.70;6.45;;;;;;;;;;5073779;28;20489;-73
2021/12/24 08:51:53;;;;;;;15.27;6.90;;;;;;;;;;5072097;28;20045;-73
2021/12/24 08:54:21;;;;;;;12.63;6.05;;;;;;;;;;5070720;28;20555;-73
2021/12/24 08:56:47;;;;;;;17.65;6.57;;;;;;;;;;5078393;28;20040;-74
2021/12/24 08:59:13;;;;;;;19.33;6.80;;;;;;;;;;5069538;28;20486;-73
2021/12/24 09:01:42;;;;;;;18.50;6.45;;;;;;;;;;5070738;28;20048;-73
2021/12/24 09:04:09;;;;;;;13.57;5.03;;;;;;;;;;5066918;28;20155;-73
2021/12/24 09:06:35;;;;;;;15.02;4.85;;;;;;;;;;5066190;28;20028;-73
2021/12/24 09:09:02;;;;;;;14.52;4.65;;;;;;;;;;5066737;28;20427;-73
2021/12/24 09:11:28;;;;;;;8.68;3.92;;;;;;;;;;5073117;28;20482;-73
2021/12/24 09:13:54;;;;;;;6.68;3.33;;;;;;;;;;5054618;28;20037;-73
2021/12/24 09:16:21;;;;;;;10.18;3.00;;;;;;;;;;5069035;28;20043;-73
2021/12/24 09:18:55;;;;;;;5.63;3.38;;;;;;;;;;5066909;28;20041;-73
2021/12/24 09:21:23;;;;;;;8.77;2.90;;;;;;;;;;5060541;28;20044;-73
2021/12/24 09:23:49;;;;;;;5.07;2.47;;;;;;;;;;5066429;28;20093;-73
2021/12/24 09:26:17;;;;;;;7.43;2.75;;;;;;;;;;5054782;28;20052;-73
2021/12/24 09:28:44;;;;;;;4.72;2.70;;;;;;;;;;5066322;28;20041;-74
2021/12/24 09:31:10;;;;;;;5.57;2.40;;;;;;;;;;5090506;28;20045;-73
2021/12/24 09:33:37;;;;;;;3.75;2.10;;;;;;;;;;5098803;27;20375;-73
2021/12/24 09:36:03;;;;;;;6.07;2.38;;;;;;;;;;5062075;28;20318;-73
2021/12/24 09:38:29;;;;;;;4.40;1.63;;;;;;;;;;5066755;28;20041;-73
2021/12/24 09:40:55;;;;;;;2.38;1.67;;;;;;;;;;5060936;28;20078;-73
2021/12/24 09:43:24;;;;;;;2.22;1.50;;;;;;;;;;5094877;28;20060;-73
2021/12/24 09:45:50;;;;;;;2.88;1.50;;;;;;;;;;5070311;28;20107;-73
2021/12/24 09:48:17;;;;;;;2.33;1.40;;;;;;;;;;5096664;27;20044;-73
2021/12/24 09:50:44;;;;;;;2.45;1.95;;;;;;;;;;5059648;28;20380;-73
2021/12/24 09:53:10;;;;;;;2.03;1.27;;;;;;;;;;5062552;28;20033;-74
2021/12/24 09:55:36;;;;;;;3.33;1.30;;;;;;;;;;5048185;28;20040;-73
2021/12/24 09:58:02;;;;;;;2.42;1.40;;;;;;;;;;5093310;27;20045;-73
2021/12/24 10:00:29;;;;;;;2.10;1.40;;;;;;;;;;5063292;28;20076;-74
2021/12/24 10:02:57;;;;;;;2.08;1.40;;;;;;;;;;5063020;28;20503;-73
2021/12/24 10:05:26;;;;;;;1.63;1.25;;;;;;;;;;5062423;28;20028;-73
2021/12/24 10:07:52;;;;;;;1.67;1.15;;;;;;;;;;5099151;28;20044;-73
2021/12/24 10:10:25;;;;;;;3.55;1.00;;;;;;;;;;5062464;28;20040;-73
2021/12/24 10:12:52;;;;;;;1.25;0.88;;;;;;;;;;5068023;28;20055;-73
2021/12/24 10:15:19;;;;;;;1.55;1.35;;;;;;;;;;5066258;28;20032;-73
2021/12/24 10:17:46;;;;;;;1.92;0.98;;;;;;;;;;5061512;28;20040;-73
2021/12/24 10:20:12;;;;;;;2.95;1.02;;;;;;;;;;5093172;27;20044;-73
2021/12/24 10:22:47;;;;;;;2.20;1.30;;;;;;;;;;5063176;28;20052;-73
2021/12/24 10:25:14;;;;;;;2.40;1.17;;;;;;;;;;5067362;28;20111;-73
2021/12/24 10:27:41;;;;;;;4.85;1.40;;;;;;;;;;5050851;28;20175;-73
2021/12/24 10:30:21;;;;;;;1.58;0.90;;;;;;;;;;5066058;28;20032;-73
2021/12/24 10:32:48;;;;;;;1.70;1.17;;;;;;;;;;5063995;28;20037;-72
2021/12/24 10:35:18;;;;;;;1.55;1.30;;;;;;;;;;5101057;27;20040;-73
2021/12/24 10:37:44;;;;;;;2.60;1.50;;;;;;;;;;5066715;28;20085;-73
2021/12/24 10:40:10;;;;;;;1.85;1.33;;;;;;;;;;5064453;28;20044;-73
2021/12/24 10:42:38;;;;;;;1.92;1.35;;;;;;;;;;5066355;28;20052;-73
2021/12/24 10:45:08;;;;;;;5.43;2.38;;;;;;;;;;5062785;28;20510;-73
2021/12/24 10:47:38;;;;;;;6.35;1.83;;;;;;;;;;5095129;27;20086;-74
2021/12/24 10:55:25;;;;;;;2.70;1.70;;;;;;;;;;5058904;28;20094;-73
2021/12/24 10:57:53;;;;;;;3.13;1.88;;;;;;;;;;5066306;28;20563;-73
2021/12/24 11:00:25;;;;;;;3.03;1.77;;;;;;;;;;5065629;28;20048;-73
2021/12/24 11:02:53;;;;;;;5.15;4.03;;;;;;;;;;5066059;28;20050;-73
2021/12/24 11:05:27;;;;;;;6.45;2.83;;;;;;;;;;5063813;28;20043;-73
2021/12/24 11:07:54;;;;;;;6.68;4.43;;;;;;;;;;5061918;28;20040;-73
2021/12/24 11:10:22;;;;;;;6.72;4.20;;;;;;;;;;5062579;28;20044;-73
2021/12/24 11:12:55;;;;;;;6.35;4.43;;;;;;;;;;5065306;28;20048;-73
2021/12/24 11:15:24;;;;;;;8.02;5.68;;;;;;;;;;5059445;28;20758;-73
2021/12/24 11:17:51;;;;;;;5.55;4.78;;;;;;;;;;5056152;28;20048;-73
2021/12/24 11:20:18;;;;;;;6.80;5.57;;;;;;;;;;5060517;28;20051;-73
2021/12/24 11:22:51;;;;;;;11.00;4.68;;;;;;;;;;5061058;28;20412;-73
2021/12/24 11:25:19;;;;;;;5.28;3.90;;;;;;;;;;5064483;28;20041;-73
2021/12/24 11:27:45;;;;;;;4.95;2.58;;;;;;;;;;5061560;28;20040;-73
2021/12/24 11:30:11;;;;;;;5.53;3.22;;;;;;;;;;5057829;28;20044;-73
2021/12/24 11:32:38;;;;;;;3.75;2.92;;;;;;;;;;5059693;28;20044;-73
2021/12/24 11:35:04;;;;;;;4.97;3.50;;;;;;;;;;5059393;28;20032;-73
2021/12/24 11:37:31;;;;;;;6.70;3.90;;;;;;;;;;5059240;28;20493;-73
2021/12/24 11:39:58;;;;;;;6.40;3.50;;;;;;;;;;5062047;28;20068;-73
2021/12/24 11:42:27;;;;;;;5.95;3.45;;;;;;;;;;5063863;28;20058;-73
2021/12/24 11:44:54;;;;;;;5.45;3.40;;;;;;;;;;5062074;28;20060;-73
2021/12/24 11:47:20;;;;;;;7.18;3.40;;;;;;;;;;5061193;28;20061;-73
2021/12/24 11:49:47;;;;;;;5.32;3.67;;;;;;;;;;5057505;28;20036;-73
2021/12/24 11:52:13;;;;;;;5.63;3.22;;;;;;;;;;5055676;28;20041;-73
2021/12/24 11:54:39;;;;;;;4.55;3.35;;;;;;;;;;5058890;28;20123;-73
2021/12/24 11:57:15;;;;;;;5.95;3.38;;;;;;;;;;5093216;28;20052;-73
2021/12/24 11:59:41;;;;;;;6.20;3.75;;;;;;;;;;5057377;28;20048;-73
2021/12/24 12:02:08;;;;;;;5.32;3.95;;;;;;;;;;5062949;28;20039;-73
2021/12/24 12:04:34;;;;;;;5.18;3.55;;;;;;;;;;5064002;28;20028;-73
2021/12/24 12:07:17;;;;;;;5.40;3.47;;;;;;;;;;5062357;28;20127;-73
2021/12/24 12:09:45;;;;;;;7.80;3.85;;;;;;;;;;5089298;28;20033;-73
2021/12/24 12:12:15;;;;;;;6.88;4.35;;;;;;;;;;5058290;28;20055;-73
2021/12/24 12:14:41;;;;;;;5.25;3.50;;;;;;;;;;5063420;28;20128;-72
2021/12/24 12:17:07;;;;;;;4.05;2.72;;;;;;;;;;5066339;28;20662;-73
2021/12/24 12:22:13;;;;;;;;;;;;;;;;;;5062133;28;20052;-73
2021/12/24 12:27:18;;;;;;;6.35;4.22;;;;;;;;;;5062406;28;20056;-73
2021/12/24 12:29:46;;;;;;;6.00;3.85;;;;;;;;;;5063916;28;20075;-73
2021/12/24 12:32:18;;;;;;;5.55;3.67;;;;;;;;;;5061572;28;20127;-73
2021/12/24 12:34:44;;;;;;;6.15;3.35;;;;;;;;;;5082846;28;20075;-73
2021/12/24 12:37:21;;;;;;;6.20;3.30;;;;;;;;;;5060694;28;20041;-73
2021/12/24 12:39:58;;;;;;;8.43;3.35;;;;;;;;;;5047136;28;20044;-74
2021/12/24 12:42:45;;;;;;;6.57;2.70;;;;;;;;;;5062003;28;20144;-73
2021/12/24 12:45:11;;;;;;;4.68;2.50;;;;;;;;;;5059053;28;20400;-73
2021/12/24 12:47:51;;;;;;;7.88;2.80;;;;;;;;;;5062549;28;20489;-73
2021/12/24 12:50:18;;;;;;;4.55;2.83;;;;;;;;;;5058423;28;20044;-73
2021/12/24 12:52:44;;;;;;;4.55;2.40;;;;;;;;;;5060868;28;20445;-73
2021/12/24 12:55:30;;;;;;;3.95;1.90;;;;;;;;;;5060028;28;20512;-73
2021/12/24 12:58:15;;;;;;;4.00;2.20;;;;;;;;;;5060419;28;20439;-73
2021/12/24 13:00:41;;;;;;;4.68;2.38;;;;;;;;;;5064145;28;20048;-73
2021/12/24 13:03:09;;;;;;;3.70;1.50;;;;;;;;;;5063501;28;20044;-73
2021/12/24 13:05:38;;;;;;;2.75;1.70;;;;;;;;;;5063974;28;20105;-73
2021/12/24 13:08:18;;;;;;;3.38;1.48;;;;;;;;;;5064411;28;20047;-73
2021/12/24 13:11:10;;;;;;;3.35;1.60;;;;;;;;;;5058372;28;20510;-73
2021/12/24 13:13:55;;;;;;;3.97;2.07;;;;;;;;;;5076902;28;20045;-73
2021/12/24 13:16:32;;;;;;;3.40;1.83;;;;;;;;;;5063654;28;20047;-73
2021/12/24 13:24:18;;;;;;;1.70;1.23;;;;;;;;;;5095582;27;20072;-73
2021/12/24 13:26:48;;;;;;;1.42;1.00;;;;;;;;;;5061135;28;20410;-73
2021/12/24 13:29:17;;;;;;;7.05;1.73;;;;;;;;;;5057829;28;20110;-73
2021/12/24 13:31:51;;;;;;;1.52;1.00;;;;;;;;;;5062910;28;20509;-73
2021/12/24 13:34:17;;;;;;;2.00;1.08;;;;;;;;;;5056833;28;20040;-73
2021/12/24 13:36:43;;;;;;;2.20;1.38;;;;;;;;;;5057886;28;20119;-73
2021/12/24 13:39:10;;;;;;;2.80;1.02;;;;;;;;;;5063380;28;20386;-73
2021/12/24 13:41:37;;;;;;;2.05;1.00;;;;;;;;;;5055866;28;20434;-73
2021/12/24 13:44:03;;;;;;;2.00;0.85;;;;;;;;;;5051854;28;20058;-73
2021/12/24 13:46:33;;;;;;;7.55;1.05;;;;;;;;;;5098747;27;20540;-73
2021/12/24 13:54:34;;;;;;;1.92;0.70;;;;;;;;;;5062551;28;20075;-73
2021/12/24 13:57:01;;;;;;;2.40;0.95;;;;;;;;;;5092805;27;20036;-73
2021/12/24 13:59:28;;;;;;;1.33;0.50;;;;;;;;;;5095252;28;20090;-74
2021/12/24 14:01:55;;;;;;;1.20;0.80;;;;;;;;;;5062664;28;20423;-73
2021/12/24 14:04:23;;;;;;;3.05;0.90;;;;;;;;;;5064656;28;20379;-73
2021/12/24 14:06:55;;;;;;;1.30;0.80;;;;;;;;;;5062480;28;20047;-73
2021/12/24 14:09:27;;;;;;;4.07;1.13;;;;;;;;;;5045227;28;20046;-73
2021/12/24 14:11:54;;;;;;;1.58;0.90;;;;;;;;;;5066791;28;20137;-73
2021/12/24 14:14:28;;;;;;;1.38;0.82;;;;;;;;;;5079762;28;20178;-73
2021/12/24 14:22:23;;;;;;;1.95;0.90;;;;;;;;;;5063130;28;20493;-73
2021/12/24 14:24:54;;;;;;;0.93;0.70;;;;;;;;;;5060274;28;20459;-73
2021/12/24 14:27:20;;;;;;;3.28;0.60;;;;;;;;;;5057032;28;20510;-73
2021/12/24 14:29:47;;;;;;;1.00;0.43;;;;;;;;;;5062800;28;20044;-73
2021/12/24 14:32:15;;;;;;;4.03;0.70;;;;;;;;;;5059471;28;20089;-73
2021/12/24 14:34:42;;;;;;;1.20;0.68;;;;;;;;;;5060845;28;20094;-73
2021/12/24 14:37:10;;;;;;;2.05;0.50;;;;;;;;;;5062631;28;20079;-73
2021/12/24 14:39:37;;;;;;;1.75;0.82;;;;;;;;;;5056677;28;20132;-73
2021/12/24 14:42:23;;;;;;;1.60;0.70;;;;;;;;;;5058436;28;20105;-73
2021/12/24 14:44:50;;;;;;;1.27;0.80;;;;;;;;;;5056897;28;20053;-73
2021/12/24 14:47:21;;;;;;;4.55;0.93;;;;;;;;;;5064321;28;20048;-73
2021/12/24 14:49:47;;;;;;;3.35;1.15;;;;;;;;;;5063195;28;20048;-74
2021/12/24 14:52:15;;;;;;;3.95;1.10;;;;;;;;;;5043342;28;20521;-73
2021/12/24 14:54:59;;;;;;;5.63;1.65;;;;;;;;;;5047311;28;20455;-73
2021/12/24 14:57:26;;;;;;;17.27;1.60;;;;;;;;;;5058674;28;20127;-73
2021/12/24 14:59:52;;;;;;;3.00;1.17;;;;;;;;;;5060234;28;20056;-73
2021/12/24 15:02:18;;;;;;;3.70;1.23;;;;;;;;;;5026630;28;20044;-73
2021/12/24 15:04:44;;;;;;;3.47;1.30;;;;;;;;;;5065953;28;20083;-73
2021/12/24 15:07:11;;;;;;;4.03;1.10;;;;;;;;;;5065677;28;20090;-73
2021/12/24 15:09:39;;;;;;;3.92;1.35;;;;;;;;;;5063532;28;20044;-71
2021/12/24 15:12:22;;;;;;;6.75;2.15;;;;;;;;;;5067934;28;20442;-72
2021/12/24 15:14:48;;;;;;;;;;;;;;;;;;5066786;28;20044;-71
2021/12/24 15:17:14;;;;;;;6.53;1.90;;;;;;;;;;5065244;28;19924;-74
2021/12/24 15:19:41;;;;;;;4.90;1.88;;;;;;;;;;5066083;28;20409;-71
2021/12/24 15:22:07;;;;;;;6.80;2.92;;;;;;;;;;5062179;28;20040;-71
2021/12/24 15:24:33;;;;;;;7.47;4.43;;;;;;;;;;5063876;28;20038;-71
2021/12/24 15:26:59;;;;;;;6.85;3.10;;;;;;;;;;5078676;28;20562;-71
2021/12/24 15:29:25;;;;;;;6.30;2.58;;;;;;;;;;5066171;28;20040;-71
2021/12/24 15:31:51;;;;;;;3.70;1.50;;;;;;;;;;5063458;28;20044;-71
2021/12/24 15:34:17;;;;;;;3.17;1.60;;;;;;;;;;5065478;28;20115;-71
2021/12/24 15:36:43;;;;;;;4.25;1.60;;;;;;;;;;5066501;28;20505;-71
2021/12/24 15:39:09;;;;;;;4.05;2.88;;;;;;;;;;5064345;28;20135;-71
2021/12/24 15:41:37;;;;;;;3.88;1.90;;;;;;;;;;5065408;28;20052;-72
2021/12/24 15:44:06;;;;;;;3.25;2.17;;;;;;;;;;5093401;28;20104;-72
2021/12/24 15:46:34;;;;;;;6.38;2.50;;;;;;;;;;5064785;28;20076;-72
2021/12/24 15:49:00;;;;;;;5.00;2.30;;;;;;;;;;5070859;28;20045;-72
2021/12/24 15:51:26;;;;;;;3.53;1.73;;;;;;;;;;5067799;28;20043;-72
2021/12/24 15:53:52;;;;;;;3.28;1.90;;;;;;;;;;5064068;28;20478;-72
2021/12/24 15:56:18;;;;;;;10.38;2.63;;;;;;;;;;5065333;28;20044;-72
2021/12/24 15:58:44;;;;;;;19.67;11.68;;;;;;;;;;5061637;28;20041;-72
2021/12/24 16:01:11;;;;;;;14.13;8.85;;;;;;;;;;5059479;28;20045;-71
2021/12/24 16:03:38;;;;;;;118.43;76.55;;;;;;;;;;5058932;28;20376;-72
2021/12/24 16:06:04;;;;;;;78.38;53.78;;;;;;;;;;5060526;28;20094;-72
2021/12/24 16:08:32;;;;;;;20.52;14.13;;;;;;;;;;5041825;28;20039;-72
2021/12/24 16:10:59;;;;;;;16.13;9.15;;;;;;;;;;5058685;28;20037;-72
2021/12/24 16:13:25;;;;;;;21.75;10.43;;;;;;;;;;5056294;28;20032;-71
2021/12/24 16:15:52;;;;;;;16.83;9.77;;;;;;;;;;5089162;28;20044;-72
2021/12/24 16:18:19;;;;;;;10.63;6.35;;;;;;;;;;5067686;28;20119;-72
2021/12/24 16:20:45;;;;;;;9.93;4.40;;;;;;;;;;5062126;28;20044;-72
2021/12/24 16:23:12;;;;;;;6.32;3.35;;;;;;;;;;5085237;28;20076;-72
2021/12/24 16:25:38;;;;;;;5.65;3.03;;;;;;;;;;5090084;28;20045;-72
2021/12/24 16:28:06;;;;;;;8.30;3.25;;;;;;;;;;5062224;28;20394;-72
2021/12/24 16:30:32;;;;;;;7.43;3.42;;;;;;;;;;5057041;28;20044;-72
2021/12/24 16:32:59;;;;;;;7.22;3.22;;;;;;;;;;5064329;28;20131;-72
2021/12/24 16:35:28;;;;;;;10.30;6.50;;;;;;;;;;5063295;28;20267;-72
2021/12/24 16:37:55;;;;;;;10.60;4.80;;;;;;;;;;5075744;28;20047;-72
2021/12/24 16:40:24;;;;;;;6.68;3.33;;;;;;;;;;5081159;28;20044;-72
2021/12/24 16:42:52;;;;;;;9.75;2.72;;;;;;;;;;5060725;28;20037;-72
2021/12/24 16:45:19;;;;;;;12.25;4.95;;;;;;;;;;5057993;28;20091;-72
2021/12/24 16:47:45;;;;;;;15.40;5.32;;;;;;;;;;5064090;28;20047;-72